Latest Weather Observations for Proserpine

IDQ60801

Issued at 7:02 am EST Friday 18 August 2017 (issued every 30 minutes, with the page automatically refreshed every 10 minutes)

About weather observations | Map of weather stations | Latest weather observations for QLD | Other Formats
Station Details ID: 033247 Name: PROSERPINE AIRPORT Lat: -20.49 Lon: 148.56 Height: 19.7 m
Data from the previous 72 hours. | See also: Recent months at Proserpine
Date/Time
EST
Temp
°C
App
Temp
°C
Dew
Point
°C
Rel
Hum
%
Delta-T
°C
Wind Press
QNH
hPa
Press
MSL
hPa
Rain since
9am
mm
Dir  Spd
km/h
Gust
km/h
Spd
kts
Gust
kts
18/07:00am 12.8 13.6 12.6 99 0.1 CALM 0 0 0 0 1016.8 1016.8 0.0
18/06:59am 12.7 13.5 12.5 99 0.1 CALM 0 0 0 0 1016.8 1016.8 0.0
18/06:58am 12.5 13.2 12.3 99 0.1 CALM 0 0 0 0 1016.8 1016.8 0.0
18/06:30am 12.2 12.1 12.0 99 0.1 WSW 4 6 2 3 1016.3 1016.3 0.0
18/06:00am 12.0 11.4 11.7 98 0.2 W 6 7 3 4 1016.0 1016.0 0.0
18/05:30am 12.1 11.3 11.8 98 0.2 WNW 7 9 4 5 1015.5 1015.5 0.0
18/05:05am 12.4 13.0 11.9 97 0.3 CALM 0 0 0 0 1015.3 1015.3 0.0
18/05:00am 12.3 12.9 11.8 97 0.3 CALM 0 0 0 0 1015.3 1015.3 0.0
18/04:57am 12.2 12.7 11.7 97 0.3 CALM 0 0 0 0 1015.3 1015.3 0.0
18/04:30am 12.6 12.1 12.0 96 0.3 SW 6 6 3 3 1015.0 1015.0 0.0
18/04:00am 13.1 13.2 12.6 97 0.3 SW 4 7 2 4 1014.8 1014.8 0.0
18/03:59am 13.0 13.0 12.5 97 0.3 SW 4 6 2 3 1014.8 1014.8 0.0
18/03:32am 13.6 13.2 13.1 97 0.3 SSW 7 9 4 5 1014.8 1014.8 0.0
18/03:30am 13.8 13.7 13.3 97 0.3 SSW 6 9 3 5 1014.8 1014.8 0.0
18/03:00am 14.2 15.4 13.7 97 0.3 CALM 0 0 0 0 1014.7 1014.7 0.0
18/02:30am 14.5 15.7 13.7 95 0.4 CALM 0 0 0 0 1014.8 1014.8 0.0
18/02:18am 14.9 16.3 14.3 96 0.3 CALM 0 0 0 0 1014.8 1014.8 0.0
18/02:00am 15.4 17.0 14.9 97 0.3 CALM 0 0 0 0 1014.9 1014.9 0.0
18/01:30am 15.5 15.9 14.7 95 0.5 N 6 7 3 4 1014.9 1014.9 0.0
18/01:00am 16.1 16.6 15.5 96 0.3 N 7 9 4 5 1015.0 1015.0 0.0
18/12:30am 16.4 17.1 15.6 95 0.5 N 6 7 3 4 1015.3 1015.3 0.0
18/12:00am 16.8 17.1 16.0 95 0.5 N 9 11 5 6 1015.3 1015.3 0.0
 
Date/Time
EST
Temp
°C
App
Temp
°C
Dew
Point
°C
Rel
Hum
%
Delta-T
°C
Wind Press
QNH
hPa
Press
MSL
hPa
Rain since
9am
mm
Dir  Spd
km/h
Gust
km/h
Spd
kts
Gust
kts
17/11:30pm 17.4 17.9 16.6 95 0.5 N 9 11 5 6 1015.4 1015.4 0.0
17/11:00pm 17.5 18.0 16.5 94 0.6 N 9 11 5 6 1015.5 1015.5 0.0
17/10:30pm 17.9 18.1 16.8 93 0.7 N 11 13 6 7 1015.5 1015.5 0.0
17/10:00pm 18.4 19.0 16.7 90 1.0 N 9 13 5 7 1015.6 1015.6 0.0
17/09:30pm 18.9 19.3 17.2 90 1.0 NNW 11 13 6 7 1015.6 1015.6 0.0
17/09:00pm 19.0 19.3 17.0 88 1.2 NNW 11 13 6 7 1015.6 1015.6 0.0
17/08:30pm 19.7 19.8 17.5 87 1.3 NNW 13 17 7 9 1015.5 1015.5 0.0
17/08:00pm 20.0 20.2 17.6 86 1.5 NNW 13 17 7 9 1015.3 1015.3 0.0
17/07:30pm 20.3 21.1 17.3 83 1.8 NNW 9 13 5 7 1015.0 1015.0 0.0
17/07:00pm 21.3 21.1 17.5 79 2.3 NNW 15 20 8 11 1014.5 1014.5 0.0
17/06:30pm 21.7 21.3 17.1 75 2.8 NNW 15 20 8 11 1014.1 1014.1 0.0
17/06:00pm 22.8 21.9 16.8 69 3.7 NNW 17 24 9 13 1013.8 1013.8 0.0
17/05:30pm 24.3 22.8 16.8 63 4.6 NNW 20 28 11 15 1013.4 1013.4 0.0
17/05:00pm 25.8 23.8 16.4 56 5.8 NNW 22 30 12 16 1013.1 1013.1 0.0
17/04:30pm 27.5 25.9 16.5 51 6.8 NNW 20 30 11 16 1012.8 1012.8 0.0
17/04:00pm 28.1 26.5 16.4 49 7.3 NNW 20 30 11 16 1012.6 1012.6 0.0
17/03:30pm 28.6 26.7 15.8 45 7.9 NNW 20 28 11 15 1012.4 1012.4 0.0
17/03:00pm 29.0 27.6 16.5 46 7.8 N 19 26 10 14 1012.6 1012.6 0.0
17/02:30pm 28.7 27.4 15.9 45 7.9 N 17 24 9 13 1012.8 1012.8 0.0
17/02:00pm 29.5 28.7 17.0 47 7.9 NNW 17 26 9 14 1013.1 1013.1 0.0
17/01:30pm 29.2 27.9 16.7 46 7.8 NNW 19 24 10 13 1013.5 1013.5 0.0
17/01:00pm 29.6 28.8 17.1 47 7.9 NNW 17 26 9 14 1013.9 1013.9 0.0
17/12:30pm 29.4 28.8 17.6 49 7.5 NNW 17 30 9 16 1014.4 1014.4 0.0
17/12:00pm 28.2 27.8 16.1 47 7.5 N 13 20 7 11 1014.9 1014.9 0.0
17/11:30am 26.9 26.4 16.8 54 6.3 N 15 22 8 12 1015.5 1015.5 0.0
17/11:00am 26.5 27.1 17.8 58 5.5 NW 11 17 6 9 1016.2 1016.2 0.0
17/10:30am 25.6 26.0 17.3 60 5.2 NNW 11 17 6 9 1016.6 1016.6 0.0
17/10:00am 24.8 25.5 18.0 66 4.3 NW 11 19 6 10 1016.8 1016.8 0.0
17/09:30am 24.3 25.6 17.5 66 4.2 W 7 11 4 6 1017.0 1017.0 0.0
17/09:00am 22.3 23.7 17.7 75 2.8 SW 7 9 4 5 1017.0 1017.0 0.0
17/08:30am 19.1 20.5 16.3 84 1.7 WSW 4 7 2 4 1016.9 1016.9 0.0
17/08:00am 16.5 18.2 15.2 92 0.8 CALM 0 0 0 0 1016.8 1016.8 0.0
17/07:30am 13.9 14.6 13.4 97 0.3 NW 2 6 1 3 1016.6 1016.6 0.0
17/07:00am 11.2 11.4 10.6 96 0.3 CALM 0 0 0 0 1016.4 1016.4 0.0
17/06:30am 11.1 11.3 10.5 96 0.3 CALM 0 0 0 0 1016.2 1016.2 0.0
17/06:00am 11.1 11.2 10.3 95 0.4 CALM 0 0 0 0 1015.8 1015.8 0.0
17/05:30am 11.7 12.0 10.9 95 0.4 CALM 0 0 0 0 1015.5 1015.5 0.0
17/05:00am 11.4 10.8 10.3 93 0.6 W 4 7 2 4 1015.4 1015.4 0.0
17/04:30am 11.6 11.9 10.8 95 0.4 CALM 0 0 0 0 1015.3 1015.3 0.0
17/04:00am 12.1 12.6 11.5 96 0.3 CALM 0 0 0 0 1015.2 1015.2 0.0
17/03:43am 12.1 12.5 11.3 95 0.4 CALM 0 0 0 0 1015.2 1015.2 0.0
17/03:30am 12.3 12.9 11.8 97 0.3 CALM 0 0 0 0 1015.2 1015.2 0.0
17/03:07am 12.0 11.6 11.2 95 0.4 W 4 6 2 3 1015.2 1015.2 0.0
17/03:00am 12.4 11.8 11.8 96 0.3 WSW 6 6 3 3 1015.3 1015.3 0.0
17/02:30am 12.5 12.9 11.2 92 0.7 CALM 0 0 0 0 1015.5 1015.5 0.0
17/02:00am 12.9 13.5 12.0 94 0.5 CALM 0 0 0 0 1015.7 1015.7 0.0
17/01:30am 13.5 14.3 12.6 94 0.5 CALM 0 0 0 0 1015.8 1015.8 0.0
17/01:00am 13.8 14.4 13.0 95 0.4 SW 2 4 1 2 1015.8 1015.8 0.0
17/12:30am 13.8 13.5 12.7 93 0.6 SW 6 9 3 5 1016.1 1016.1 0.0
17/12:00am 14.3 15.3 13.3 94 0.6 CALM 0 0 0 0 1016.3 1016.3 0.0
 
Date/Time
EST
Temp
°C
App
Temp
°C
Dew
Point
°C
Rel
Hum
%
Delta-T
°C
Wind Press
QNH
hPa
Press
MSL
hPa
Rain since
9am
mm
Dir  Spd
km/h
Gust
km/h
Spd
kts
Gust
kts
16/11:30pm 14.4 15.0 13.1 92 0.7 SW 2 6 1 3 1016.5 1016.5 0.0
16/11:00pm 14.4 14.0 13.0 91 0.8 SW 7 9 4 5 1016.6 1016.6 0.0
16/10:30pm 15.4 15.5 13.8 90 0.9 SW 6 7 3 4 1016.6 1016.6 0.0
16/10:14pm 15.6 15.7 14.0 90 0.9 SW 6 7 3 4 1016.7 1016.7 0.0
16/10:00pm 16.4 16.9 15.1 92 0.8 SW 6 7 3 4 1016.7 1016.7 0.0
16/09:50pm 16.4 16.9 15.1 92 0.8 SW 6 9 3 5 1016.6 1016.6 0.0
16/09:33pm 16.5 16.5 15.2 92 0.8 SSW 9 11 5 6 1016.5 1016.5 0.0
16/09:30pm 16.4 16.3 14.9 91 0.9 SSW 9 11 5 6 1016.5 1016.5 0.0
16/09:00pm 17.0 18.5 14.6 86 1.4 CALM 0 0 0 0 1016.3 1016.3 0.0
16/08:30pm 17.4 18.9 14.7 84 1.6 CALM 0 0 0 0 1016.3 1016.3 0.0
16/08:00pm 18.4 20.1 15.3 82 1.8 CALM 0 0 0 0 1015.9 1015.9 0.0
16/07:30pm 19.5 21.3 15.6 78 2.3 CALM 0 0 0 0 1015.6 1015.6 0.0
16/07:00pm 20.4 21.0 15.8 75 2.7 NNW 7 9 4 5 1015.1 1015.1 0.0
16/06:30pm 21.2 21.9 16.2 73 3.0 N 7 13 4 7 1014.7 1014.7 0.0
16/06:00pm 22.2 22.1 16.0 68 3.7 N 11 17 6 9 1014.3 1014.3 0.0
16/05:30pm 23.8 22.9 15.8 61 4.8 N 15 20 8 11 1013.9 1013.9 0.0
16/05:00pm 25.3 24.2 15.3 54 6.0 NNE 15 22 8 12 1013.8 1013.8 0.0
16/04:30pm 26.5 25.2 14.9 49 7.0 NNE 15 22 8 12 1013.4 1013.4 0.0
16/04:00pm 27.4 26.2 15.1 47 7.5 NNE 15 24 8 13 1013.3 1013.3 0.0
16/03:30pm 27.3 26.3 15.7 49 7.1 NNE 15 22 8 12 1013.3 1013.3 0.0
16/03:00pm 28.3 27.9 16.2 47 7.5 ENE 13 30 7 16 1013.3 1013.3 0.0
16/02:30pm 27.4 26.2 15.1 47 7.5 NE 15 24 8 13 1013.6 1013.6 0.0
16/02:00pm 27.9 26.4 15.2 46 7.7 NE 17 26 9 14 1014.0 1014.0 0.0
16/01:30pm 27.6 26.2 14.6 45 7.8 ENE 15 22 8 12 1014.6 1014.6 0.0
16/01:00pm 29.3 28.3 13.5 38 9.4 N 11 24 6 13 1015.1 1015.1 0.0
16/12:30pm 27.9 27.0 13.8 42 8.4 N 11 19 6 10 1015.7 1015.7 0.0
16/12:00pm 27.6 27.1 14.9 45 7.7 NNE 11 17 6 9 1016.3 1016.3 0.0
16/11:30am 26.3 26.6 15.0 49 6.8 NE 7 19 4 10 1016.9 1016.9 0.0
16/11:00am 26.4 26.7 16.1 53 6.3 NNE 9 19 5 10 1017.4 1017.4 0.0
16/10:30am 25.5 25.3 15.8 55 5.9 NNE 11 20 6 11 1017.8 1017.7 0.0
16/10:00am 24.4 25.2 16.4 61 4.9 NNE 7 17 4 9 1018.0 1017.9 0.0
16/09:30am 23.1 24.4 17.1 69 3.7 NNW 6 11 3 6 1018.0 1017.9 0.0
16/09:00am 22.1 23.8 18.1 78 2.5 SSE 6 7 3 4 1018.0 1017.9 0.0
16/08:30am 19.2 21.5 16.8 86 1.4 CALM 0 2 0 1 1017.8 1017.7 0.0
16/08:00am 16.7 18.7 16.1 96 0.4 CALM 0 6 0 3 1017.6 1017.6 0.0
16/07:39am 14.9 16.4 14.7 99 0.1 CALM 0 0 0 0 1017.3 1017.3 0.0
16/07:30am 14.1 15.3 13.9 99 0.1 CALM 0 0 0 0 1017.3 1017.3 0.0
16/07:25am 13.9 15.1 13.7 99 0.1 CALM 0 0 0 0 1017.3 1017.3 0.0
16/07:00am 12.2 11.7 12.0 99 0.1 NW 6 6 3 3 1017.2 1017.2 0.0
16/06:30am 11.6 12.0 11.3 98 0.2 CALM 0 0 0 0 1016.8 1016.8 0.0
16/06:00am 12.8 13.6 12.6 99 0.1 CALM 0 4 0 2 1016.4 1016.4 0.0
16/05:34am 12.6 12.9 12.3 98 0.2 NNW 2 7 1 4 1016.0 1016.0 0.0
16/05:30am 12.4 13.1 12.1 98 0.2 CALM 0 0 0 0 1015.9 1015.9 0.0
16/05:00am 11.9 12.3 11.4 97 0.3 CALM 0 0 0 0 1015.5 1015.5 0.0
16/04:48am 11.9 12.3 11.4 97 0.3 CALM 0 0 0 0 1015.5 1015.5 0.0
16/04:30am 12.9 13.7 12.4 97 0.3 CALM 0 0 0 0 1015.4 1015.4 0.0
16/04:28am 12.8 13.5 12.3 97 0.3 CALM 0 0 0 0 1015.3 1015.3 0.0
16/04:00am 13.0 13.4 12.5 97 0.3 NNW 2 7 1 4 1015.3 1015.3 0.0
16/03:30am 12.2 11.9 11.4 95 0.4 NW 4 6 2 3 1015.3 1015.3 0.0
16/03:00am 13.8 14.8 13.3 97 0.3 CALM 0 0 0 0 1015.6 1015.6 0.0
16/02:30am 14.5 14.5 14.3 99 0.1 SSW 7 9 4 5 1015.9 1015.9 0.0
16/02:14am 14.1 13.6 13.9 99 0.1 SSW 9 11 5 6 1015.9 1015.9 0.0
16/02:00am 14.3 14.5 14.1 99 0.1 SW 6 7 3 4 1016.0 1016.0 0.0
16/01:59am 14.2 14.3 14.0 99 0.1 SW 6 7 3 4 1016.0 1016.0 0.0
16/01:30am 13.4 14.4 13.1 98 0.2 CALM 0 0 0 0 1016.3 1016.3 0.0
16/01:20am 13.4 14.0 13.1 98 0.2 WSW 2 6 1 3 1016.3 1016.3 0.0
16/01:00am 13.3 14.2 12.8 97 0.3 CALM 0 4 0 2 1016.3 1016.3 0.0
16/12:54am 13.3 13.7 12.5 95 0.4 SW 2 6 1 3 1016.4 1016.4 0.0
16/12:30am 13.5 13.2 12.7 95 0.4 SW 6 9 3 5 1016.5 1016.5 0.0
16/12:25am 13.4 13.0 12.3 93 0.6 SW 6 7 3 4 1016.5 1016.5 0.0
16/12:00am 13.8 13.6 12.9 94 0.5 SW 6 7 3 4 1016.5 1016.5 0.0
 
Date/Time
EST
Temp
°C
App
Temp
°C
Dew
Point
°C
Rel
Hum
%
Delta-T
°C
Wind Press
QNH
hPa
Press
MSL
hPa
Rain since
9am
mm
Dir  Spd
km/h
Gust
km/h
Spd
kts
Gust
kts
15/11:30pm 13.8 13.5 12.7 93 0.6 SW 6 6 3 3 1016.7 1016.7 0.0
15/11:00pm 14.5 14.2 13.4 93 0.6 SW 7 7 4 4 1016.8 1016.8 0.0
15/10:33pm 15.2 16.4 13.9 92 0.7 CALM 0 0 0 0 1017.0 1017.0 0.0
15/10:30pm 15.3 16.6 14.2 93 0.6 CALM 0 0 0 0 1017.0 1017.0 0.0
15/10:14pm 15.6 17.0 14.3 92 0.7 CALM 0 0 0 0 1017.1 1017.1 0.0
15/10:09pm 15.6 16.9 14.1 91 0.8 CALM 0 0 0 0 1017.1 1017.1 0.0
15/10:00pm 16.3 18.0 15.2 93 0.6 CALM 0 0 0 0 1017.1 1017.1 0.0
15/09:32pm 17.1 19.0 15.8 92 0.8 CALM 0 0 0 0 1017.2 1017.2 0.0
15/09:30pm 17.1 19.0 15.8 92 0.8 CALM 0 0 0 0 1017.3 1017.3 0.0
15/09:00pm 17.5 19.2 15.1 86 1.4 CALM 0 0 0 0 1017.3 1017.3 0.0
15/08:30pm 18.4 20.2 16.4 88 1.2 NW 2 6 1 3 1017.3 1017.3 0.0
15/08:00pm 19.3 20.4 16.7 85 1.6 NNW 6 6 3 3 1017.0 1017.0 0.0
15/07:30pm 20.2 21.4 17.4 84 1.7 NNW 7 11 4 6 1016.8 1016.8 0.0
15/07:00pm 20.7 21.8 17.1 80 2.2 NNW 7 9 4 5 1016.4 1016.4 0.0
15/06:30pm 21.4 21.8 17.2 77 2.6 N 11 17 6 9 1016.1 1016.1 0.0
15/06:00pm 22.4 22.7 16.9 71 3.4 N 11 15 6 8 1016.0 1016.0 0.0
15/05:30pm 24.2 23.9 16.5 62 4.7 NNE 13 15 7 8 1015.7 1015.7 0.0
15/05:00pm 26.0 26.0 17.1 58 5.5 ESE 13 17 7 9 1015.4 1015.4 0.0
15/04:30pm 26.6 25.7 16.8 55 6.1 ESE 17 22 9 12 1015.2 1015.2 0.0
15/04:00pm 27.1 25.8 17.3 55 6.1 SE 20 26 11 14 1014.9 1014.9 0.0
15/03:30pm 27.9 27.2 17.4 52 6.6 E 17 24 9 13 1014.8 1014.8 0.0
15/03:00pm 28.1 27.6 17.0 51 6.9 E 15 22 8 12 1015.0 1015.0 0.0
15/02:30pm 28.2 27.3 16.8 50 7.1 E 17 24 9 13 1015.1 1015.1 0.0
15/02:00pm 28.7 28.2 16.9 48 7.4 ENE 15 24 8 13 1015.3 1015.3 0.0
15/01:30pm 28.6 28.6 15.2 44 8.2 E 9 19 5 10 1015.6 1015.6 0.0
15/01:00pm 27.7 27.4 14.3 43 8.0 N 9 20 5 11 1016.3 1016.3 0.0
15/12:30pm 27.5 28.3 15.8 48 7.2 WNW 6 13 3 7 1016.9 1016.9 0.0
15/12:00pm 26.5 25.8 15.5 50 6.7 NW 13 17 7 9 1017.4 1017.4 0.0
15/11:30am 26.2 26.3 15.6 52 6.5 ENE 9 15 5 8 1018.1 1018.0 0.0
15/11:00am 25.6 26.2 15.9 55 5.9 NNW 7 15 4 8 1018.6 1018.5 0.0
15/10:30am 25.5 25.9 16.4 57 5.6 N 9 20 5 11 1019.1 1019.0 0.0
15/10:00am 24.3 24.7 15.2 57 5.4 NW 7 13 4 7 1019.6 1019.5 0.0
15/09:30am 22.7 23.3 15.8 65 4.2 NNW 7 11 4 6 1020.0 1019.9 0.0
15/09:00am 20.4 21.1 15.6 74 2.8 NW 6 9 3 5 1020.1 1020.0 0.0
15/08:30am 17.6 17.6 13.7 78 2.2 NNW 6 7 3 4 1019.8 1019.7 0.0
15/08:00am 14.8 16.1 14.0 95 0.4 CALM 0 0 0 0 1019.6 1019.5 0.0
15/07:30am 12.2 11.7 11.9 98 0.2 SE 6 7 3 4 1019.3 1019.2 0.0
15/07:06am 10.9 10.0 10.7 99 0.1 SW 6 7 3 4 1018.9 1018.8 0.0

Other Formats:

Comma delimited format used in spreadsheet applications
http://www.bom.gov.au/fwo/IDQ60801/IDQ60801.94365.axf

JavaScript Object Notation format (JSON) in row-major order
http://www.bom.gov.au/fwo/IDQ60801/IDQ60801.94365.json